Time;durP1;ratioP1;P1;durP2;ratioP2;P2;SDS_P1;SDS_P2;PMS_P1;PMS_P2;Temp;Humidity;BMP_temperature;BMP_pressure;BME280_temperature;BME280_humidity;BME280_pressure;Samples;Min_cycle;Max_cycle;Signal;HPM_P1;HPM_P2
2023/09/27 00:02:15;;;;;;;19.10;17.20;;;;;;;19.19;100.00;101838.44;5039700;28;20040;-71
2023/09/27 00:04:41;;;;;;;27.13;19.52;;;;;;;19.19;100.00;101832.13;5076755;28;20045;-71
2023/09/27 00:07:06;;;;;;;21.33;19.20;;;;;;;19.28;100.00;101835.38;5084218;28;20025;-71
2023/09/27 00:09:32;;;;;;;20.92;18.70;;;;;;;19.28;100.00;101838.13;5059767;28;20040;-72
2023/09/27 00:11:58;;;;;;;26.17;19.77;;;;;;;19.33;100.00;101833.59;5040882;28;20029;-72
2023/09/27 00:14:24;;;;;;;22.80;19.75;;;;;;;19.37;100.00;101833.97;5043806;28;20095;-71
2023/09/27 00:16:49;;;;;;;27.52;21.30;;;;;;;19.37;100.00;101831.25;5080905;28;20028;-71
2023/09/27 00:19:15;;;;;;;24.92;20.77;;;;;;;19.38;100.00;101832.94;5061824;28;20459;-71
2023/09/27 00:21:41;;;;;;;27.50;22.05;;;;;;;19.36;100.00;101840.50;5060424;28;20052;-71
2023/09/27 00:24:07;;;;;;;28.50;20.65;;;;;;;19.37;100.00;101842.16;5041806;28;20052;-71
2023/09/27 00:26:32;;;;;;;27.27;20.88;;;;;;;19.39;100.00;101837.31;5082898;28;20082;-71
2023/09/27 00:28:58;;;;;;;25.17;21.42;;;;;;;19.37;100.00;101840.28;5083309;28;20035;-71
2023/09/27 00:31:23;;;;;;;30.25;24.40;;;;;;;19.36;100.00;101835.88;5065567;28;20032;-72
2023/09/27 00:33:49;;;;;;;31.02;23.05;;;;;;;19.42;100.00;101834.94;5064398;28;20054;-71
2023/09/27 00:36:16;;;;;;;31.35;25.15;;;;;;;19.36;100.00;101830.41;5048672;28;20052;-71
2023/09/27 00:38:41;;;;;;;31.35;24.80;;;;;;;19.47;100.00;101837.00;5082333;28;20021;-71
2023/09/27 00:41:07;;;;;;;36.13;26.08;;;;;;;19.32;100.00;101820.22;5048497;28;20182;-73
2023/09/27 00:43:34;;;;;;;31.38;26.73;;;;;;;19.46;100.00;101846.22;5082846;28;20046;-71
2023/09/27 00:46:02;;;;;;;34.55;26.90;;;;;;;19.44;100.00;101832.84;5083011;28;20395;-71
2023/09/27 00:48:29;;;;;;;38.78;28.27;;;;;;;19.49;100.00;101845.75;5064814;28;20052;-72
2023/09/27 00:50:56;;;;;;;35.45;28.27;;;;;;;19.52;100.00;101834.38;5082652;28;20029;-72
2023/09/27 00:53:23;;;;;;;36.60;29.40;;;;;;;19.53;100.00;101827.03;5064243;28;20029;-71
2023/09/27 00:55:49;;;;;;;40.30;29.90;;;;;;;19.46;100.00;101814.31;5031730;28;20047;-71
2023/09/27 00:58:18;;;;;;;43.92;27.67;;;;;;;19.60;100.00;101817.69;5041455;28;20479;-71
2023/09/27 01:00:45;;;;;;;40.17;31.08;;;;;;;19.58;100.00;101813.50;5083403;28;20024;-71
2023/09/27 01:03:11;;;;;;;40.08;31.95;;;;;;;19.55;100.00;101817.53;5056986;28;20025;-71
2023/09/27 01:05:37;;;;;;;42.13;32.25;;;;;;;19.60;100.00;101811.34;5079963;28;20071;-71
2023/09/27 01:08:03;;;;;;;42.15;31.35;;;;;;;19.63;100.00;101803.56;5062891;28;20486;-72
2023/09/27 01:10:29;;;;;;;45.72;29.80;;;;;;;19.64;100.00;101807.16;5045556;28;20036;-71
2023/09/27 01:12:55;;;;;;;37.92;30.08;;;;;;;19.66;100.00;101805.81;5046152;28;20081;-71
2023/09/27 01:15:20;;;;;;;38.10;29.05;;;;;;;19.57;100.00;101804.50;5081682;28;20029;-71
2023/09/27 01:18:04;;;;;;;40.53;29.35;;;;;;;19.66;100.00;101805.00;5047833;28;20043;-71
2023/09/27 01:20:32;;;;;;;44.80;29.60;;;;;;;19.53;100.00;101800.53;5082229;28;20035;-72
2023/09/27 01:23:07;;;;;;;34.33;28.20;;;;;;;19.61;100.00;101800.22;5082366;28;20047;-71
2023/09/27 01:25:36;;;;;;;37.78;29.23;;;;;;;19.62;100.00;101801.88;5062953;28;20482;-72
2023/09/27 01:28:03;;;;;;;37.17;28.35;;;;;;;19.66;100.00;101805.81;5064327;28;20033;-72
2023/09/27 01:30:32;;;;;;;39.78;27.88;;;;;;;19.66;100.00;101803.09;5081986;28;20033;-71
2023/09/27 01:33:10;;;;;;;40.58;27.58;;;;;;;19.64;100.00;101804.41;5063810;28;20029;-72
2023/09/27 01:35:37;;;;;;;37.53;28.13;;;;;;;19.53;100.00;101784.16;5047133;28;20028;-72
2023/09/27 01:38:04;;;;;;;37.58;27.67;;;;;;;19.65;100.00;101804.16;5063507;28;20028;-72
2023/09/27 01:40:32;;;;;;;39.67;28.92;;;;;;;19.64;100.00;101798.97;5063570;28;20024;-73
2023/09/27 01:42:59;;;;;;;33.88;27.27;;;;;;;19.65;100.00;101800.63;5079289;28;20573;-72
2023/09/27 01:45:25;;;;;;;36.95;27.90;;;;;;;19.62;100.00;101796.41;5073668;28;20103;-71
2023/09/27 01:47:51;;;;;;;37.55;27.17;;;;;;;19.62;100.00;101796.41;5077948;28;20028;-72
2023/09/27 01:50:19;;;;;;;34.88;27.95;;;;;;;19.54;100.00;101785.03;5043088;28;20028;-72
2023/09/27 01:52:46;;;;;;;38.60;28.48;;;;;;;19.64;100.00;101805.25;5039590;28;20032;-71
2023/09/27 01:55:11;;;;;;;38.30;28.88;;;;;;;19.66;100.00;101815.91;5076359;28;20032;-71
2023/09/27 01:57:37;;;;;;;44.13;30.27;;;;;;;19.67;100.00;101810.25;5060442;28;20068;-72
2023/09/27 02:00:05;;;;;;;38.92;29.67;;;;;;;19.63;100.00;101803.56;5084041;28;20029;-71
2023/09/27 02:02:31;;;;;;;39.97;29.35;;;;;;;19.47;100.00;101771.47;5065363;28;20078;-71
2023/09/27 02:04:56;;;;;;;41.45;29.48;;;;;;;19.66;100.00;101800.38;5069674;28;20048;-71
2023/09/27 02:07:41;;;;;;;37.40;29.65;;;;;;;19.65;100.00;101795.97;5042892;28;20029;-72
2023/09/27 02:10:07;;;;;;;42.88;30.58;;;;;;;19.60;100.00;101787.66;5087444;28;20033;-71
2023/09/27 02:12:33;;;;;;;45.83;31.83;;;;;;;19.38;100.00;101759.25;5076900;28;20024;-71
2023/09/27 02:14:58;;;;;;;45.92;34.05;;;;;;;19.60;100.00;101782.19;5075751;28;20039;-71
2023/09/27 02:17:24;;;;;;;47.38;33.28;;;;;;;19.60;100.00;101773.13;5060444;28;20043;-71
2023/09/27 02:19:49;;;;;;;45.03;32.28;;;;;;;19.59;100.00;101774.22;5029046;28;20154;-71
2023/09/27 02:22:15;;;;;;;46.20;33.38;;;;;;;19.60;100.00;101773.13;5062723;28;20109;-72
2023/09/27 02:24:41;;;;;;;45.95;31.77;;;;;;;19.57;100.00;101758.09;5079412;28;20032;-71
2023/09/27 02:27:06;;;;;;;46.53;33.03;;;;;;;19.58;100.00;101748.81;5079935;28;20028;-71
2023/09/27 02:29:32;;;;;;;49.78;33.33;;;;;;;19.59;100.00;101755.94;5062320;28;20590;-72
2023/09/27 02:31:58;;;;;;;47.70;32.53;;;;;;;19.60;100.00;101748.56;5062260;28;20053;-72
2023/09/27 02:34:24;;;;;;;49.85;32.03;;;;;;;19.67;100.00;101757.53;5045523;28;20028;-72
2023/09/27 02:36:49;;;;;;;43.45;32.97;;;;;;;19.64;100.00;101747.91;5061634;28;20028;-72
2023/09/27 02:39:15;;;;;;;46.92;32.00;;;;;;;19.73;100.00;101753.81;5062003;28;20025;-72
2023/09/27 02:41:41;;;;;;;46.90;31.13;;;;;;;19.76;100.00;101760.72;5079778;28;20092;-71
2023/09/27 02:44:06;;;;;;;44.42;30.25;;;;;;;19.76;100.00;101752.53;5062107;28;20033;-72
2023/09/27 02:46:32;;;;;;;43.55;31.15;;;;;;;19.71;100.00;101748.63;5077489;28;20074;-72
2023/09/27 02:48:57;;;;;;;41.42;30.70;;;;;;;19.67;100.00;101749.34;5056439;28;20040;-72
2023/09/27 02:51:23;;;;;;;46.55;29.98;;;;;;;19.65;100.00;101743.28;5061613;28;20032;-72
2023/09/27 02:53:49;;;;;;;39.35;28.23;;;;;;;19.68;100.00;101734.63;5070155;28;20032;-71
2023/09/27 02:56:14;;;;;;;39.25;28.50;;;;;;;19.58;100.00;101712.50;5036936;28;20063;-72
2023/09/27 02:58:40;;;;;;;36.25;27.20;;;;;;;19.68;100.00;101723.69;5061650;28;20024;-72
2023/09/27 03:01:05;;;;;;;36.75;26.77;;;;;;;19.66;100.00;101721.19;5062092;28;20028;-72
2023/09/27 03:03:31;;;;;;;38.70;27.17;;;;;;;19.65;100.00;101714.06;5079091;28;20016;-72
2023/09/27 03:05:58;;;;;;;33.13;25.75;;;;;;;19.62;100.00;101708.22;5079406;28;20052;-72
2023/09/27 03:08:24;;;;;;;34.90;25.65;;;;;;;19.62;100.00;101711.78;5078945;28;20535;-72
2023/09/27 03:10:49;;;;;;;31.23;25.35;;;;;;;19.60;100.00;101711.19;5045030;28;20041;-72
2023/09/27 03:13:15;;;;;;;35.22;25.92;;;;;;;19.58;100.00;101713.31;5061913;28;20111;-72
2023/09/27 03:15:41;;;;;;;38.60;26.75;;;;;;;19.59;100.00;101739.56;5077182;28;20025;-72
2023/09/27 03:18:07;;;;;;;36.28;26.05;;;;;;;19.47;100.00;101708.69;5060967;28;20058;-72
2023/09/27 03:20:33;;;;;;;36.72;25.98;;;;;;;19.57;100.00;101722.59;5071661;28;20032;-72
2023/09/27 03:22:58;;;;;;;34.90;26.52;;;;;;;19.58;100.00;101717.97;5075270;28;20052;-72
2023/09/27 03:25:24;;;;;;;34.10;26.38;;;;;;;19.53;100.00;101712.38;5058978;28;20483;-71
2023/09/27 03:27:49;;;;;;;39.60;27.15;;;;;;;19.55;100.00;101732.91;5076383;28;20673;-71
2023/09/27 03:30:16;;;;;;;37.83;27.20;;;;;;;19.56;100.00;101731.81;5059670;28;20462;-71
2023/09/27 03:32:41;;;;;;;35.28;27.23;;;;;;;19.56;100.00;101722.81;5043351;28;20040;-72
2023/09/27 03:35:08;;;;;;;36.67;27.30;;;;;;;19.53;100.00;101710.47;5079729;28;20475;-72
2023/09/27 03:37:34;;;;;;;36.83;26.67;;;;;;;19.59;100.00;101722.34;5061307;28;20028;-72
2023/09/27 03:40:01;;;;;;;41.10;28.27;;;;;;;19.61;100.00;101739.31;5078989;28;20067;-72
2023/09/27 03:42:26;;;;;;;40.63;28.90;;;;;;;19.64;100.00;101733.44;5058748;28;20098;-72
2023/09/27 03:44:54;;;;;;;41.25;29.17;;;;;;;19.64;100.00;101745.19;5058992;28;20024;-72
2023/09/27 03:47:20;;;;;;;37.45;27.80;;;;;;;19.60;100.00;101745.84;5082367;28;20020;-71
2023/09/27 03:49:45;;;;;;;43.28;28.92;;;;;;;19.62;100.00;101749.16;5086533;28;20025;-71
2023/09/27 03:52:11;;;;;;;41.42;29.08;;;;;;;19.63;100.00;101748.94;5065446;28;20035;-72
2023/09/27 03:54:36;;;;;;;39.47;28.52;;;;;;;19.65;100.00;101729.63;5066288;28;20145;-71
2023/09/27 03:57:02;;;;;;;49.28;29.73;;;;;;;19.63;100.00;101710.72;5066307;28;20535;-72
2023/09/27 03:59:28;;;;;;;43.33;29.23;;;;;;;19.63;100.00;101688.03;5049532;28;20028;-71
2023/09/27 04:01:55;;;;;;;43.58;29.58;;;;;;;19.59;100.00;101687.69;5066322;28;20541;-71
2023/09/27 04:04:21;;;;;;;47.08;30.88;;;;;;;19.56;100.00;101695.50;5084412;28;20048;-71
2023/09/27 04:06:46;;;;;;;41.28;29.63;;;;;;;19.50;100.00;101661.78;5060813;28;20031;-72
2023/09/27 04:09:12;;;;;;;42.63;28.70;;;;;;;19.60;100.00;101667.53;5058040;28;20044;-71
2023/09/27 04:11:38;;;;;;;42.33;29.70;;;;;;;19.51;100.00;101658.03;5077273;28;20035;-71
2023/09/27 04:14:06;;;;;;;41.65;28.98;;;;;;;19.52;100.00;101667.03;5079897;28;20033;-70
2023/09/27 04:16:32;;;;;;;48.97;31.73;;;;;;;19.59;100.00;101665.00;5078091;28;20036;-71
2023/09/27 04:18:58;;;;;;;46.53;30.83;;;;;;;19.61;100.00;101673.81;5080208;28;20028;-70
2023/09/27 04:21:24;;;;;;;45.03;30.40;;;;;;;19.57;100.00;101678.91;5081016;28;20067;-71
2023/09/27 04:23:57;;;;;;;46.22;31.73;;;;;;;19.56;100.00;101674.50;5063841;28;20044;-72
2023/09/27 04:26:26;;;;;;;45.95;31.10;;;;;;;19.46;100.00;101672.34;5064540;28;20241;-72
2023/09/27 04:28:53;;;;;;;47.15;31.10;;;;;;;19.48;100.00;101683.88;5064019;28;20119;-70
2023/09/27 04:31:19;;;;;;;47.55;31.95;;;;;;;19.55;100.00;101688.41;5081279;28;20051;-71
2023/09/27 04:33:47;;;;;;;46.30;31.52;;;;;;;19.55;100.00;101680.22;5081306;28;20074;-70
2023/09/27 04:36:15;;;;;;;50.40;30.73;;;;;;;19.55;100.00;101675.56;5045289;28;20037;-70
2023/09/27 04:38:45;;;;;;;44.20;30.58;;;;;;;19.49;100.00;101660.13;5045345;28;20523;-70
2023/09/27 04:41:11;;;;;;;46.00;31.08;;;;;;;19.47;100.00;101665.84;5078614;28;20016;-70
2023/09/27 04:43:36;;;;;;;47.60;30.80;;;;;;;19.47;100.00;101651.38;5077080;28;20111;-71
2023/09/27 04:46:02;;;;;;;46.58;30.95;;;;;;;19.45;100.00;101651.59;5079963;28;20056;-71
2023/09/27 04:48:28;;;;;;;44.10;30.30;;;;;;;19.48;100.00;101662.03;5062766;28;20040;-72
2023/09/27 04:50:53;;;;;;;47.03;30.35;;;;;;;19.52;100.00;101658.84;5079848;28;20115;-72
2023/09/27 04:53:18;;;;;;;43.72;30.90;;;;;;;19.48;100.00;101661.22;5056993;28;20063;-72
2023/09/27 04:55:44;;;;;;;49.78;30.98;;;;;;;19.48;100.00;101653.03;5057893;28;20047;-72
2023/09/27 04:58:09;;;;;;;44.92;30.13;;;;;;;19.51;100.00;101644.38;5078527;28;20463;-70
2023/09/27 05:00:35;;;;;;;44.90;30.83;;;;;;;19.49;100.00;101649.22;5079459;28;20116;-71
2023/09/27 05:03:00;;;;;;;42.17;29.70;;;;;;;19.48;100.00;101644.84;5062765;28;20047;-70
2023/09/27 05:05:26;;;;;;;41.75;29.50;;;;;;;19.50;100.00;101634.50;5046424;28;20048;-71
2023/09/27 05:07:51;;;;;;;45.38;30.80;;;;;;;19.52;100.00;101646.03;5080760;28;20025;-72
2023/09/27 05:10:17;;;;;;;41.90;29.52;;;;;;;19.44;100.00;101619.94;5030554;28;20039;-71
2023/09/27 05:12:42;;;;;;;44.78;30.27;;;;;;;19.52;100.00;101634.28;5063289;28;20032;-70
2023/09/27 05:15:11;;;;;;;46.33;31.63;;;;;;;19.56;100.00;101633.56;5061377;28;20036;-70
2023/09/27 05:17:37;;;;;;;46.90;32.15;;;;;;;19.63;100.00;101642.47;5080828;28;20036;-71
2023/09/27 05:20:10;;;;;;;46.08;31.73;;;;;;;19.50;100.00;101631.78;5081625;28;20021;-71
2023/09/27 05:22:37;;;;;;;46.40;31.52;;;;;;;19.55;100.00;101629.16;5081853;28;20028;-72
2023/09/27 05:25:03;;;;;;;47.00;30.38;;;;;;;19.62;100.00;101638.06;5045843;28;20035;-72
2023/09/27 05:27:29;;;;;;;43.00;29.40;;;;;;;19.62;100.00;101642.69;5080939;28;20024;-72
2023/09/27 05:29:55;;;;;;;42.13;29.60;;;;;;;19.55;100.00;101642.81;5062800;28;20396;-71
2023/09/27 05:32:20;;;;;;;41.80;30.05;;;;;;;19.62;100.00;101648.16;5079411;28;20054;-71
2023/09/27 05:34:46;;;;;;;46.67;29.50;;;;;;;19.56;100.00;101641.75;5028768;28;20047;-70
2023/09/27 05:37:11;;;;;;;43.30;29.85;;;;;;;19.59;100.00;101632.25;5079378;28;20036;-71
2023/09/27 05:39:36;;;;;;;45.30;28.50;;;;;;;19.56;100.00;101622.63;5065483;28;20099;-71
2023/09/27 05:42:02;;;;;;;43.67;30.27;;;;;;;19.53;100.00;101620.38;5074932;28;20039;-71
2023/09/27 05:44:27;;;;;;;43.88;30.00;;;;;;;19.53;100.00;101636.75;5046244;28;20056;-70
2023/09/27 05:46:54;;;;;;;49.13;30.98;;;;;;;19.51;100.00;101629.91;5062016;28;20044;-70
2023/09/27 05:49:20;;;;;;;46.47;29.83;;;;;;;19.53;100.00;101638.66;5062762;28;20120;-70
2023/09/27 05:51:46;;;;;;;43.17;29.92;;;;;;;19.53;100.00;101647.66;5062564;28;20060;-70
2023/09/27 05:54:11;;;;;;;41.70;28.75;;;;;;;19.61;100.00;101641.03;5062843;28;20111;-70
2023/09/27 05:56:39;;;;;;;38.92;28.48;;;;;;;19.64;100.00;101640.59;5044084;28;20151;-70
2023/09/27 05:59:12;;;;;;;38.13;27.88;;;;;;;19.42;100.00;101602.94;5059752;28;20124;-70
2023/09/27 06:01:37;;;;;;;41.80;27.52;;;;;;;19.66;100.00;101646.63;5059321;28;20450;-70
2023/09/27 06:04:03;;;;;;;42.47;28.05;;;;;;;19.54;100.00;101624.78;5062151;28;20146;-70
2023/09/27 06:06:29;;;;;;;41.53;27.48;;;;;;;19.65;100.00;101631.31;5047249;28;20403;-70
2023/09/27 06:08:55;;;;;;;38.40;28.58;;;;;;;19.67;100.00;101640.94;5081104;28;20040;-70
2023/09/27 06:11:20;;;;;;;39.53;28.92;;;;;;;19.69;100.00;101654.34;5061476;28;20024;-70
2023/09/27 06:13:46;;;;;;;40.88;28.92;;;;;;;19.64;100.00;101646.88;5063255;28;20035;-70
2023/09/27 06:16:19;;;;;;;40.42;28.50;;;;;;;19.68;100.00;101653.53;5062516;28;20033;-70
2023/09/27 06:18:45;;;;;;;44.92;28.67;;;;;;;19.71;100.00;101661.22;5077984;28;20076;-70
2023/09/27 06:21:11;;;;;;;42.85;29.05;;;;;;;19.59;100.00;101638.53;5060065;28;20048;-70
2023/09/27 06:23:37;;;;;;;41.83;28.40;;;;;;;19.67;100.00;101657.34;5059971;28;20107;-70
2023/09/27 06:26:02;;;;;;;39.20;27.90;;;;;;;19.82;100.00;101675.13;5059101;28;20161;-70
2023/09/27 06:28:28;;;;;;;43.05;27.42;;;;;;;19.81;100.00;101665.28;5077535;28;20028;-70
2023/09/27 06:30:53;;;;;;;40.38;28.20;;;;;;;19.89;100.00;101681.28;5076794;28;20359;-70
2023/09/27 06:33:19;;;;;;;42.05;28.42;;;;;;;19.86;100.00;101666.19;5061621;28;20096;-70
2023/09/27 06:35:45;;;;;;;38.72;26.55;;;;;;;19.95;100.00;101664.75;5080691;28;20028;-70
2023/09/27 06:38:10;;;;;;;37.25;26.20;;;;;;;20.02;100.00;101682.91;5062661;28;20037;-70
2023/09/27 06:40:35;;;;;;;39.47;25.63;;;;;;;19.99;100.00;101676.03;5045845;28;20082;-70
2023/09/27 06:43:01;;;;;;;35.13;26.63;;;;;;;20.09;100.00;101664.47;5046016;28;20513;-71
2023/09/27 06:45:27;;;;;;;38.05;25.65;;;;;;;20.05;100.00;101658.69;5062880;28;20028;-69
2023/09/27 06:47:52;;;;;;;36.30;25.40;;;;;;;20.12;100.00;101664.84;5061454;28;20013;-70
2023/09/27 06:50:18;;;;;;;36.10;24.95;;;;;;;20.12;100.00;101664.00;5065117;28;20107;-70
2023/09/27 06:52:45;;;;;;;32.45;24.33;;;;;;;20.19;100.00;101664.69;5067126;28;20433;-70
2023/09/27 06:55:11;;;;;;;35.67;24.77;;;;;;;20.23;100.00;101668.63;5043777;28;20510;-70
2023/09/27 06:57:40;;;;;;;35.13;24.67;;;;;;;20.33;100.00;101673.44;5078164;28;20024;-70
2023/09/27 07:00:12;;;;;;;33.60;24.27;;;;;;;20.34;100.00;101677.84;5079690;28;20056;-70
2023/09/27 07:02:41;;;;;;;36.53;23.55;;;;;;;20.41;100.00;101673.06;5079907;28;20154;-70
2023/09/27 07:05:08;;;;;;;34.03;23.73;;;;;;;20.50;100.00;101677.06;5061400;28;20059;-70
2023/09/27 07:07:34;;;;;;;35.40;23.40;;;;;;;20.58;100.00;101673.97;5045146;28;20045;-71
2023/09/27 07:09:59;;;;;;;38.67;24.23;;;;;;;20.72;100.00;101673.66;5079390;28;20036;-70
2023/09/27 07:12:25;;;;;;;36.58;23.95;;;;;;;20.88;100.00;101672.88;5061486;28;20082;-70
2023/09/27 07:14:51;;;;;;;35.25;23.00;;;;;;;21.04;100.00;101672.06;5062028;28;20020;-70
2023/09/27 07:17:17;;;;;;;35.30;21.73;;;;;;;21.05;100.00;101649.06;5056605;28;20043;-70
2023/09/27 07:19:43;;;;;;;32.47;21.00;;;;;;;21.17;100.00;101670.91;5054056;28;20032;-70
2023/09/27 07:22:10;;;;;;;31.35;20.85;;;;;;;21.23;100.00;101667.16;5078659;28;20036;-70
2023/09/27 07:24:36;;;;;;;33.65;21.10;;;;;;;21.18;100.00;101667.06;5078908;28;20035;-71
2023/09/27 07:27:01;;;;;;;35.80;21.50;;;;;;;21.20;100.00;101662.19;5045116;28;20028;-70
2023/09/27 07:29:27;;;;;;;31.70;21.13;;;;;;;21.37;100.00;101670.44;5061958;28;20037;-70
2023/09/27 07:31:53;;;;;;;27.17;19.10;;;;;;;21.49;100.00;101668.44;5062045;28;20058;-70
2023/09/27 07:34:20;;;;;;;32.45;19.55;;;;;;;21.49;100.00;101673.91;5044985;28;20096;-70
2023/09/27 07:36:45;;;;;;;31.30;19.20;;;;;;;21.46;100.00;101682.63;5079271;28;20025;-70
2023/09/27 07:39:11;;;;;;;26.73;18.98;;;;;;;21.45;100.00;101689.16;5061760;28;20036;-70
2023/09/27 07:41:36;;;;;;;31.83;19.60;;;;;;;21.44;100.00;101692.97;5044760;28;20100;-70
2023/09/27 07:44:06;;;;;;;34.58;18.73;;;;;;;21.40;100.00;101675.41;5076523;28;20116;-70
2023/09/27 07:46:32;;;;;;;26.85;19.13;;;;;;;21.43;100.00;101685.03;5058395;28;20506;-70
2023/09/27 07:48:57;;;;;;;32.97;18.58;;;;;;;21.51;100.00;101693.63;5053366;28;20033;-70
2023/09/27 07:51:23;;;;;;;28.23;18.55;;;;;;;21.49;100.00;101706.78;5080440;28;20036;-71
2023/09/27 07:53:48;;;;;;;29.15;19.17;;;;;;;21.47;100.00;101719.88;5058787;28;20039;-70
2023/09/27 07:56:22;;;;;;;29.83;18.77;;;;;;;21.35;100.00;101689.00;5042641;28;20024;-70
2023/09/27 07:58:51;;;;;;;23.97;17.63;;;;;;;21.47;100.00;101699.88;5077003;28;20116;-70
2023/09/27 08:01:23;;;;;;;29.00;18.35;;;;;;;21.42;100.00;101703.34;5076655;28;20660;-71
2023/09/27 08:03:52;;;;;;;31.23;19.98;;;;;;;21.41;100.00;101720.84;5059527;28;20028;-70
2023/09/27 08:06:19;;;;;;;32.58;19.50;;;;;;;21.34;100.00;101704.59;5042797;28;20048;-70
2023/09/27 08:08:45;;;;;;;28.83;19.55;;;;;;;21.25;100.00;101705.22;5041990;28;20036;-71
2023/09/27 08:11:11;;;;;;;31.80;18.80;;;;;;;21.29;100.00;101714.59;5077721;28;20390;-71
2023/09/27 08:13:37;;;;;;;30.92;18.67;;;;;;;21.23;100.00;101710.16;5058466;28;20021;-70
2023/09/27 08:16:06;;;;;;;30.38;20.63;;;;;;;21.13;100.00;101726.41;5059273;28;20020;-70
2023/09/27 08:18:33;;;;;;;31.95;19.50;;;;;;;21.11;100.00;101716.50;5078794;28;20024;-70
2023/09/27 08:20:59;;;;;;;30.02;19.85;;;;;;;21.08;100.00;101714.25;5061181;28;20116;-70
2023/09/27 08:23:24;;;;;;;33.63;19.98;;;;;;;21.04;100.00;101726.78;5060607;28;20123;-71
2023/09/27 08:25:50;;;;;;;31.33;19.92;;;;;;;21.05;100.00;101731.16;5060085;28;20088;-70
2023/09/27 08:28:16;;;;;;;33.63;19.13;;;;;;;21.01;100.00;101731.91;5078022;28;20036;-70
2023/09/27 08:30:42;;;;;;;31.45;18.70;;;;;;;21.11;100.00;101743.88;5041807;28;20032;-70
2023/09/27 08:33:07;;;;;;;28.63;18.05;;;;;;;21.11;100.00;101737.56;5058621;28;20566;-70
2023/09/27 08:35:33;;;;;;;25.33;17.25;;;;;;;21.22;100.00;101747.59;5047035;28;20028;-70
2023/09/27 08:37:59;;;;;;;30.98;18.65;;;;;;;21.33;100.00;101745.91;5083198;28;20055;-70
2023/09/27 08:40:24;;;;;;;25.27;17.05;;;;;;;21.45;100.00;101754.03;5064706;28;20099;-70
2023/09/27 08:42:56;;;;;;;31.13;18.58;;;;;;;21.46;100.00;101748.34;5081303;28;20020;-70
2023/09/27 08:45:23;;;;;;;28.15;18.23;;;;;;;21.55;100.00;101744.09;5077370;28;20035;-70
2023/09/27 08:47:49;;;;;;;31.42;17.65;;;;;;;21.56;100.00;101742.19;5080815;28;20025;-71
2023/09/27 08:50:17;;;;;;;26.17;17.90;;;;;;;21.54;100.00;101730.66;5067232;28;20041;-71
2023/09/27 08:52:49;;;;;;;25.70;17.20;;;;;;;21.69;100.00;101738.25;5078798;28;20028;-70
2023/09/27 08:55:17;;;;;;;27.27;16.17;;;;;;;21.72;100.00;101743.25;5075746;28;20024;-70
2023/09/27 08:57:51;;;;;;;26.73;17.48;;;;;;;21.92;100.00;101754.53;5061955;28;20052;-70
2023/09/27 09:00:22;;;;;;;25.50;16.17;;;;;;;21.78;100.00;101728.53;5080354;28;20013;-70
2023/09/27 09:02:56;;;;;;;24.92;17.00;;;;;;;21.92;100.00;101749.03;5062211;28;20441;-70
2023/09/27 09:05:23;;;;;;;25.45;16.35;;;;;;;21.81;100.00;101756.25;5062629;28;20072;-71
2023/09/27 09:07:50;;;;;;;25.02;16.58;;;;;;;21.71;100.00;101753.38;5080077;28;20054;-71
2023/09/27 09:10:17;;;;;;;24.10;15.48;;;;;;;21.68;100.00;101753.03;5061977;28;20037;-70
2023/09/27 09:12:43;;;;;;;27.08;15.43;;;;;;;21.77;100.00;101748.81;5062057;28;20163;-70
2023/09/27 09:15:15;;;;;;;26.10;15.57;;;;;;;21.78;100.00;101754.03;5062225;28;20048;-70
2023/09/27 09:17:47;;;;;;;24.95;15.15;;;;;;;21.77;100.00;101759.78;5079811;28;20544;-71
2023/09/27 09:20:32;;;;;;;22.40;15.07;;;;;;;21.78;100.00;101755.94;5061908;28;20059;-70
2023/09/27 09:23:03;;;;;;;23.17;15.38;;;;;;;21.79;100.00;101765.84;5080126;28;20031;-70
2023/09/27 09:25:29;;;;;;;26.60;15.77;;;;;;;21.73;100.00;101769.56;5063823;28;20074;-70
2023/09/27 09:28:08;;;;;;;24.33;15.18;;;;;;;21.90;100.00;101762.16;5081308;28;20032;-71
2023/09/27 09:30:35;;;;;;;23.98;15.73;;;;;;;22.01;100.00;101758.47;5081317;28;20103;-70
2023/09/27 09:33:03;;;;;;;21.23;14.10;;;;;;;22.15;100.00;101752.63;5081615;28;20403;-70
2023/09/27 09:35:32;;;;;;;23.67;15.38;;;;;;;22.21;100.00;101747.00;5080832;28;20031;-70
2023/09/27 09:37:59;;;;;;;23.20;14.55;;;;;;;22.23;100.00;101758.53;5080299;28;20036;-70
2023/09/27 09:40:25;;;;;;;20.73;13.35;;;;;;;22.28;100.00;101747.66;5077973;28;20477;-71
2023/09/27 09:42:50;;;;;;;22.48;14.10;;;;;;;22.29;100.00;101745.75;5066641;28;20045;-72
2023/09/27 09:45:16;;;;;;;20.58;12.70;;;;;;;22.38;99.18;101751.59;5081810;28;20533;-71
2023/09/27 09:47:44;;;;;;;21.85;11.77;;;;;;;22.52;98.52;101755.63;5080221;28;20601;-70
2023/09/27 09:50:16;;;;;;;21.15;12.55;;;;;;;22.51;98.24;101756.69;5061880;28;20021;-70
2023/09/27 09:52:50;;;;;;;24.75;13.88;;;;;;;22.48;97.69;101749.81;5079056;28;20040;-70
2023/09/27 09:55:20;;;;;;;21.23;12.90;;;;;;;22.67;96.93;101754.97;5061459;28;20063;-70
2023/09/27 09:57:46;;;;;;;22.55;13.05;;;;;;;22.81;95.82;101750.72;5060563;28;20036;-70
2023/09/27 10:00:17;;;;;;;19.00;12.00;;;;;;;22.91;94.98;101739.03;5058256;28;20024;-70
2023/09/27 10:03:03;;;;;;;22.27;12.13;;;;;;;22.96;94.60;101739.94;5060583;28;20028;-70
2023/09/27 10:05:37;;;;;;;27.95;13.63;;;;;;;22.98;94.16;101746.00;5061454;28;20048;-70
2023/09/27 10:08:04;;;;;;;20.17;12.88;;;;;;;22.90;93.97;101757.41;5078677;28;20032;-70
2023/09/27 10:10:30;;;;;;;23.27;12.60;;;;;;;22.83;94.27;101773.25;5058376;28;20174;-70
2023/09/27 10:12:57;;;;;;;15.30;11.80;;;;;;;22.76;94.14;101764.41;5059811;28;20048;-70
2023/09/27 10:15:23;;;;;;;19.73;11.70;;;;;;;22.73;94.22;101781.38;5059033;28;20032;-70
2023/09/27 10:17:49;;;;;;;19.83;11.55;;;;;;;22.66;94.46;101772.50;5060941;28;20462;-70
2023/09/27 10:20:19;;;;;;;16.38;12.30;;;;;;;22.62;94.76;101774.13;5078559;28;20487;-71
2023/09/27 10:22:47;;;;;;;19.15;12.70;;;;;;;22.56;95.02;101773.22;5060496;28;20247;-70
2023/09/27 10:25:25;;;;;;;18.85;12.30;;;;;;;22.56;94.72;101759.50;5056691;28;20032;-70
2023/09/27 10:28:04;;;;;;;18.10;11.98;;;;;;;22.57;94.72;101757.59;5079304;28;20036;-70
2023/09/27 10:30:41;;;;;;;19.08;12.60;;;;;;;22.68;93.98;101762.94;5080436;28;20024;-71
2023/09/27 10:33:22;;;;;;;16.40;11.27;;;;;;;22.83;93.30;101759.53;5062306;28;20119;-70
2023/09/27 10:36:15;;;;;;;18.98;11.98;;;;;;;22.91;93.04;101761.81;5062290;28;20047;-70
2023/09/27 10:38:44;;;;;;;15.95;11.23;;;;;;;23.02;92.73;101770.19;5061800;28;20022;-71
2023/09/27 10:41:32;;;;;;;17.73;11.45;;;;;;;23.00;92.28;101759.47;5058916;28;20033;-70
2023/09/27 10:43:59;;;;;;;18.55;11.43;;;;;;;22.98;92.27;101762.47;5077753;28;20101;-71
2023/09/27 10:46:24;;;;;;;20.27;12.20;;;;;;;23.02;92.06;101756.47;5032371;28;20020;-70
2023/09/27 10:49:00;;;;;;;18.40;11.68;;;;;;;22.94;92.00;101764.06;5089665;28;20521;-70
2023/09/27 10:51:26;;;;;;;16.65;11.20;;;;;;;22.77;92.48;101760.56;5078654;28;20028;-71
2023/09/27 10:53:55;;;;;;;15.60;11.05;;;;;;;22.73;93.04;101781.38;5078362;28;20017;-70
2023/09/27 10:56:20;;;;;;;19.42;11.75;;;;;;;22.73;93.09;101775.88;5077736;28;20052;-70
2023/09/27 10:58:52;;;;;;;16.70;10.75;;;;;;;22.81;93.04;101778.16;5060300;28;20028;-70
2023/09/27 11:01:23;;;;;;;18.67;12.00;;;;;;;22.90;92.61;101781.28;5060419;28;20108;-70
2023/09/27 11:03:59;;;;;;;22.13;12.13;;;;;;;22.85;92.37;101779.31;5043668;28;20058;-71